Time;durP1;ratioP1;P1;durP2;ratioP2;P2;SDS_P1;SDS_P2;PMS_P1;PMS_P2;Temp;Humidity;BMP_temperature;BMP_pressure;BME280_temperature;BME280_humidity;BME280_pressure;Samples;Min_cycle;Max_cycle;Signal;HPM_P1;HPM_P2
2022/11/06 00:02:19;;;;;;;10.48;4.70;;;;;;;8.75;100.00;101389.41;5034021;28;20458;-71
2022/11/06 00:04:44;;;;;;;15.27;4.55;;;;;;;8.75;100.00;101391.22;5034832;28;20500;-71
2022/11/06 00:07:09;;;;;;;13.27;4.47;;;;;;;8.74;100.00;101373.59;5034696;28;20480;-72
2022/11/06 00:09:35;;;;;;;13.90;4.50;;;;;;;8.74;100.00;101378.91;5035502;28;20450;-71
2022/11/06 00:12:00;;;;;;;8.98;4.30;;;;;;;8.75;100.00;101375.28;5034912;28;20398;-72
2022/11/06 00:14:25;;;;;;;10.10;4.15;;;;;;;8.76;100.00;101372.53;5034975;28;20096;-71
2022/11/06 00:16:51;;;;;;;11.80;4.47;;;;;;;8.80;100.00;101375.78;5035056;28;20112;-71
2022/11/06 00:19:16;;;;;;;19.35;4.00;;;;;;;8.83;100.00;101356.97;5034747;28;20034;-71
2022/11/06 00:21:43;;;;;;;12.85;4.90;;;;;;;8.83;100.00;101359.63;5034522;28;20036;-71
2022/11/06 00:24:12;;;;;;;9.82;4.32;;;;;;;8.86;100.00;101363.88;5034688;28;20037;-72
2022/11/06 00:26:38;;;;;;;9.95;3.85;;;;;;;8.89;100.00;101359.16;5034251;28;20037;-71
2022/11/06 00:29:05;;;;;;;10.48;4.25;;;;;;;8.93;100.00;101365.09;5034646;28;20031;-71
2022/11/06 00:31:34;;;;;;;8.50;4.18;;;;;;;8.93;100.00;101368.59;5033890;28;20116;-70
2022/11/06 00:34:01;;;;;;;11.48;4.30;;;;;;;8.93;100.00;101359.78;5034404;28;20029;-70
2022/11/06 00:36:31;;;;;;;9.40;4.03;;;;;;;8.92;100.00;101366.91;5034695;28;20121;-71
2022/11/06 00:38:58;;;;;;;9.18;4.28;;;;;;;8.93;100.00;101363.28;5034107;28;20428;-71
2022/11/06 00:41:23;;;;;;;10.52;4.60;;;;;;;8.92;100.00;101372.19;5034596;28;20094;-70
2022/11/06 00:43:51;;;;;;;7.93;4.03;;;;;;;8.90;100.00;101366.19;5034198;28;20522;-71
2022/11/06 00:46:18;;;;;;;8.10;4.53;;;;;;;8.89;100.00;101364.47;5034382;28;20053;-71
2022/11/06 00:48:43;;;;;;;10.25;4.60;;;;;;;8.86;100.00;101358.56;5034281;28;20095;-71
2022/11/06 00:51:38;;;;;;;16.02;4.57;;;;;;;8.80;100.00;101365.16;5033970;28;20462;-71
2022/11/06 00:54:06;;;;;;;11.70;4.55;;;;;;;8.76;100.00;101369.00;5033684;28;20106;-70
2022/11/06 00:56:32;;;;;;;9.50;4.40;;;;;;;8.70;100.00;101357.03;5033787;28;20083;-71
2022/11/06 00:59:00;;;;;;;13.00;5.10;;;;;;;8.67;100.00;101367.88;5033769;28;20049;-70
2022/11/06 01:01:28;;;;;;;13.98;5.03;;;;;;;8.60;100.00;101370.16;5033641;28;20041;-70
2022/11/06 01:03:56;;;;;;;11.30;5.00;;;;;;;8.55;100.00;101364.31;5033952;28;20539;-70
2022/11/06 01:06:26;;;;;;;15.98;5.35;;;;;;;8.53;100.00;101363.59;5033865;28;20029;-70
2022/11/06 01:08:51;;;;;;;13.23;5.00;;;;;;;8.50;100.00;101369.13;5033916;28;20029;-70
2022/11/06 01:11:21;;;;;;;10.93;5.85;;;;;;;8.47;100.00;101359.59;5033521;28;20512;-71
2022/11/06 01:13:49;;;;;;;12.40;5.30;;;;;;;8.45;100.00;101363.34;5033443;28;20026;-70
2022/11/06 01:16:16;;;;;;;13.27;5.40;;;;;;;8.43;100.00;101365.19;5033703;28;20026;-70
2022/11/06 01:18:43;;;;;;;12.85;5.30;;;;;;;8.42;100.00;101366.16;5032278;28;20045;-69
2022/11/06 01:21:12;;;;;;;11.85;5.20;;;;;;;8.40;100.00;101360.13;5033751;28;20038;-69
2022/11/06 01:23:37;;;;;;;12.25;6.10;;;;;;;8.39;100.00;101359.28;5033591;28;20036;-70
2022/11/06 01:26:06;;;;;;;10.80;5.38;;;;;;;8.37;100.00;101358.53;5049146;28;20334;-69
2022/11/06 01:28:32;;;;;;;14.88;5.30;;;;;;;8.36;100.00;101350.69;5033502;28;20034;-69
2022/11/06 01:31:13;;;;;;;11.00;5.40;;;;;;;8.36;100.00;101356.00;5033990;28;20030;-70
2022/11/06 01:33:39;;;;;;;10.65;5.18;;;;;;;8.35;100.00;101349.84;5033606;28;20025;-70
2022/11/06 01:36:10;;;;;;;16.75;5.50;;;;;;;8.35;100.00;101356.97;5033541;28;20379;-70
2022/11/06 01:38:43;;;;;;;13.88;5.18;;;;;;;8.34;100.00;101356.09;5032995;28;20036;-70
2022/11/06 01:41:12;;;;;;;15.05;5.60;;;;;;;8.33;100.00;101354.44;5033432;28;20061;-70
2022/11/06 01:43:48;;;;;;;14.73;5.65;;;;;;;8.33;100.00;101356.22;5032965;28;20042;-70
2022/11/06 01:46:15;;;;;;;15.10;5.63;;;;;;;8.32;100.00;101354.53;5032032;28;20033;-70
2022/11/06 01:48:43;;;;;;;12.68;5.20;;;;;;;8.31;100.00;101351.03;5033661;28;20072;-70
2022/11/06 01:51:09;;;;;;;14.50;5.95;;;;;;;8.31;100.00;101358.97;5033228;28;20025;-70
2022/11/06 01:53:36;;;;;;;15.30;5.78;;;;;;;8.32;100.00;101351.91;5033291;28;20140;-70
2022/11/06 01:56:05;;;;;;;17.48;5.43;;;;;;;8.30;100.00;101350.19;5033280;28;20033;-70
2022/11/06 01:58:33;;;;;;;14.25;5.50;;;;;;;8.31;100.00;101340.41;5032240;28;20458;-70
2022/11/06 02:00:59;;;;;;;9.95;5.57;;;;;;;8.29;100.00;101340.53;5032993;28;20044;-71
2022/11/06 02:03:25;;;;;;;9.65;5.90;;;;;;;8.29;100.00;101348.50;5032073;28;20062;-70
2022/11/06 02:05:52;;;;;;;14.43;6.10;;;;;;;8.29;100.00;101348.50;5032628;28;20386;-70
2022/11/06 02:08:20;;;;;;;12.02;6.30;;;;;;;8.29;100.00;101348.50;5033231;28;20037;-72
2022/11/06 02:10:47;;;;;;;17.40;6.30;;;;;;;8.27;100.00;101333.63;5032844;28;20029;-71
2022/11/06 02:13:36;;;;;;;15.65;6.30;;;;;;;8.26;100.00;101327.50;5032976;28;20040;-70
2022/11/06 02:16:25;;;;;;;11.15;5.88;;;;;;;8.26;100.00;101326.66;5032678;28;20029;-71
2022/11/06 02:19:05;;;;;;;12.13;5.65;;;;;;;8.25;100.00;101322.31;5032921;28;20037;-69
2022/11/06 02:22:14;;;;;;;16.70;5.93;;;;;;;8.24;100.00;101328.56;5032887;28;20143;-71
2022/11/06 02:24:58;;;;;;;14.82;5.60;;;;;;;8.24;100.00;101331.22;5032446;28;20021;-70
2022/11/06 02:27:26;;;;;;;14.77;6.18;;;;;;;8.24;100.00;101321.47;5033043;28;20135;-74
2022/11/06 02:30:08;;;;;;;17.88;6.65;;;;;;;8.22;100.00;101314.59;5031758;28;20026;-69
2022/11/06 02:33:00;;;;;;;12.32;6.05;;;;;;;8.22;100.00;101317.25;5031367;28;20121;-71
2022/11/06 02:35:31;;;;;;;;;;;;;;;8.24;100.00;101320.63;5033424;28;20037;-70
2022/11/06 02:38:02;;;;;;;13.32;5.55;;;;;;;8.22;100.00;101327.84;5032544;28;19952;-70
2022/11/06 02:40:33;;;;;;;19.92;7.15;;;;;;;8.23;100.00;101318.94;5032809;28;20043;-71
2022/11/06 02:43:04;;;;;;;19.58;6.30;;;;;;;8.21;100.00;101324.34;5032916;28;20030;-70
2022/11/06 02:45:35;;;;;;;14.77;6.27;;;;;;;8.22;100.00;101317.25;5032717;28;20504;-70
2022/11/06 02:48:05;;;;;;;13.80;6.13;;;;;;;8.22;100.00;101307.47;5032589;28;20466;-70
2022/11/06 02:50:34;;;;;;;15.63;6.72;;;;;;;8.22;100.00;101299.53;5036428;28;20104;-70
2022/11/06 02:53:03;;;;;;;14.50;6.00;;;;;;;8.22;100.00;101304.00;5036346;28;20030;-71
2022/11/06 02:55:37;;;;;;;15.18;6.07;;;;;;;8.21;100.00;101311.09;5036813;28;20057;-72
2022/11/06 02:58:08;;;;;;;16.55;6.63;;;;;;;8.21;100.00;101300.50;5036943;28;20037;-70
2022/11/06 03:00:36;;;;;;;18.70;6.97;;;;;;;8.22;100.00;101310.13;5036748;28;20029;-70
2022/11/06 03:03:14;;;;;;;19.65;7.53;;;;;;;8.21;100.00;101305.81;5034990;28;20083;-71
2022/11/06 03:05:48;;;;;;;20.73;8.02;;;;;;;8.21;100.00;101303.16;5036760;28;20036;-70
2022/11/06 03:08:24;;;;;;;16.90;8.23;;;;;;;8.23;100.00;101305.69;5036194;28;20033;-70
2022/11/06 03:11:13;;;;;;;19.15;7.85;;;;;;;8.24;100.00;101300.28;5035286;28;20033;-70
2022/11/06 03:13:43;;;;;;;24.50;9.35;;;;;;;8.23;100.00;101292.44;5034165;28;20041;-71
2022/11/06 03:16:50;;;;;;;16.98;8.15;;;;;;;8.22;100.00;101286.25;5036368;28;20473;-70
2022/11/06 03:19:26;;;;;;;18.70;9.07;;;;;;;8.23;100.00;101295.09;5034387;28;20053;-70
2022/11/06 03:22:10;;;;;;;25.10;8.45;;;;;;;8.24;100.00;101292.31;5034931;28;20108;-70
2022/11/06 03:24:45;;;;;;;20.13;8.85;;;;;;;8.24;100.00;101292.31;5035582;28;20041;-71
2022/11/06 03:27:19;;;;;;;15.35;8.43;;;;;;;8.25;100.00;101283.38;5036043;28;20120;-70
2022/11/06 03:29:53;;;;;;;17.63;8.80;;;;;;;8.24;100.00;101272.91;5035759;28;20108;-70
2022/11/06 03:32:34;;;;;;;23.17;9.07;;;;;;;8.25;100.00;101271.94;5035831;28;20034;-70
2022/11/06 03:35:06;;;;;;;;;;;;;;;8.25;100.00;101274.59;5037171;28;20029;-70
2022/11/06 03:37:45;;;;;;;17.48;8.70;;;;;;;8.25;100.00;101262.19;5036182;28;19952;-72
2022/11/06 03:40:15;;;;;;;16.80;8.85;;;;;;;8.26;100.00;101269.19;5036135;28;20486;-70
2022/11/06 03:42:43;;;;;;;18.52;8.73;;;;;;;8.26;100.00;101271.00;5035792;28;20029;-70
2022/11/06 03:45:15;;;;;;;17.00;9.35;;;;;;;8.25;100.00;101259.53;5035983;28;20386;-70
2022/11/06 03:47:54;;;;;;;19.90;9.95;;;;;;;8.26;100.00;101255.09;5035200;28;20466;-70
2022/11/06 03:50:44;;;;;;;14.15;9.23;;;;;;;8.26;100.00;101250.63;5035977;28;20510;-70
2022/11/06 03:53:24;;;;;;;19.58;9.07;;;;;;;8.26;100.00;101240.03;5035806;28;20136;-70
2022/11/06 03:56:22;;;;;;;18.60;9.88;;;;;;;8.27;100.00;101243.50;5035793;28;20030;-70
2022/11/06 03:58:49;;;;;;;18.05;9.63;;;;;;;8.28;100.00;101234.59;5033598;28;20389;-70
2022/11/06 04:01:19;;;;;;;20.73;9.25;;;;;;;8.27;100.00;101240.84;5034556;28;20462;-70
2022/11/06 04:04:04;;;;;;;23.70;10.43;;;;;;;8.27;100.00;101232.91;5034045;28;20382;-71
2022/11/06 04:06:41;;;;;;;16.90;9.52;;;;;;;8.27;100.00;101231.13;5035188;28;20052;-70
2022/11/06 04:14:46;;;;;;;17.77;10.63;;;;;;;8.30;100.00;101222.94;5033580;28;20064;-70
2022/11/06 04:17:13;;;;;;;22.77;10.23;;;;;;;8.30;100.00;101214.97;5034616;28;20055;-70
2022/11/06 04:19:47;;;;;;;15.88;9.38;;;;;;;8.32;100.00;101206.91;5034840;28;20090;-71
2022/11/06 04:22:31;;;;;;;19.38;9.95;;;;;;;8.34;100.00;101209.44;5034668;28;20103;-70
2022/11/06 04:28:11;;;;;;;19.63;9.57;;;;;;;8.33;100.00;101211.25;5035074;28;20117;-69
2022/11/06 04:30:53;;;;;;;17.05;9.13;;;;;;;8.35;100.00;101216.44;5034688;28;20449;-70
2022/11/06 04:33:30;;;;;;;21.63;9.98;;;;;;;8.35;100.00;101217.28;5034293;28;20022;-71
2022/11/06 04:36:10;;;;;;;18.75;9.40;;;;;;;8.34;100.00;101214.75;5034522;28;20032;-71
2022/11/06 04:38:52;;;;;;;20.35;9.13;;;;;;;8.34;100.00;101218.22;5035026;28;20021;-69
2022/11/06 04:41:23;;;;;;;24.38;10.40;;;;;;;8.34;100.00;101210.28;5035022;28;20057;-70
2022/11/06 04:43:57;;;;;;;15.07;9.13;;;;;;;8.33;100.00;101199.78;5034391;28;20136;-71
2022/11/06 04:46:29;;;;;;;19.88;9.35;;;;;;;8.33;100.00;101213.91;5033366;28;20412;-71
2022/11/06 04:48:54;;;;;;;;;;;;;;;8.33;100.00;101205.97;5034642;28;20037;-70
2022/11/06 04:51:24;;;;;;;17.58;8.55;;;;;;;8.32;100.00;101196.31;5033965;28;19923;-71
2022/11/06 04:53:52;;;;;;;18.17;8.35;;;;;;;8.30;100.00;101199.06;5049298;28;20036;-71
2022/11/06 04:56:32;;;;;;;16.67;8.60;;;;;;;8.30;100.00;101200.88;5034191;28;20040;-71
2022/11/06 04:58:57;;;;;;;15.68;7.90;;;;;;;8.32;100.00;101200.78;5034462;28;20119;-71
2022/11/06 05:01:23;;;;;;;15.05;8.05;;;;;;;8.29;100.00;101202.66;5033787;28;20076;-70
2022/11/06 05:03:48;;;;;;;16.20;8.07;;;;;;;8.30;100.00;101193.78;5034303;28;20236;-70
2022/11/06 05:06:14;;;;;;;13.30;7.85;;;;;;;8.29;100.00;101186.75;5034257;28;20033;-70
2022/11/06 05:08:39;;;;;;;17.67;7.60;;;;;;;8.29;100.00;101184.13;5033695;28;20034;-70
2022/11/06 05:11:05;;;;;;;17.20;7.95;;;;;;;8.28;100.00;101177.16;5032842;28;20354;-71
2022/11/06 05:13:31;;;;;;;18.27;8.25;;;;;;;8.28;100.00;101181.56;5034007;28;20344;-70
2022/11/06 05:15:57;;;;;;;15.68;7.70;;;;;;;8.27;100.00;101167.50;5032375;28;20033;-71
2022/11/06 05:18:24;;;;;;;11.10;7.20;;;;;;;8.26;100.00;101173.75;5033847;28;20029;-69
2022/11/06 05:22:56;;;;;;;11.98;7.40;;;;;;;8.28;100.00;101174.50;5048926;28;20041;-70
2022/11/06 05:23:37;;;;;;;14.73;7.15;;;;;;;8.27;100.00;101167.50;5032689;28;20049;-70
2022/11/06 05:26:03;;;;;;;13.68;7.30;;;;;;;8.27;100.00;101163.97;5033557;28;20045;-70
2022/11/06 05:28:28;;;;;;;13.27;7.25;;;;;;;8.27;100.00;101156.88;5033706;28;20557;-70
2022/11/06 05:30:53;;;;;;;14.25;8.00;;;;;;;8.27;100.00;101148.06;5033280;28;20061;-70
2022/11/06 05:33:19;;;;;;;15.05;6.88;;;;;;;8.27;100.00;101148.94;5033243;28;20036;-70
2022/11/06 05:35:44;;;;;;;13.90;7.20;;;;;;;8.26;100.00;101143.75;5033773;28;20037;-71
2022/11/06 05:38:09;;;;;;;12.00;6.88;;;;;;;8.28;100.00;101147.97;5033465;28;20068;-70
2022/11/06 05:40:35;;;;;;;11.27;6.45;;;;;;;8.27;100.00;101153.38;5048814;28;20381;-70
2022/11/06 05:43:00;;;;;;;10.82;6.28;;;;;;;8.28;100.00;101140.03;5048977;28;20422;-69
2022/11/06 05:45:25;;;;;;;13.23;6.22;;;;;;;8.25;100.00;101134.94;5033464;28;20486;-70
2022/11/06 05:47:51;;;;;;;11.05;6.50;;;;;;;8.27;100.00;101148.06;5032033;28;20075;-70
2022/11/06 05:50:16;;;;;;;13.45;6.15;;;;;;;8.26;100.00;101135.78;5033360;28;20029;-69
2022/11/06 05:52:42;;;;;;;11.68;6.03;;;;;;;8.25;100.00;101134.09;5033223;28;20029;-70
2022/11/06 05:55:07;;;;;;;14.35;6.40;;;;;;;8.26;100.00;101131.31;5048645;28;20029;-70
2022/11/06 05:57:33;;;;;;;9.68;6.45;;;;;;;8.28;100.00;101131.22;5033256;28;20033;-70
2022/11/06 05:59:58;;;;;;;13.18;6.93;;;;;;;8.27;100.00;101124.22;5033186;28;20414;-70
2022/11/06 06:02:23;;;;;;;14.23;7.22;;;;;;;8.28;100.00;101115.31;5033009;28;20064;-70
2022/11/06 06:04:49;;;;;;;14.00;6.78;;;;;;;8.28;100.00;101112.66;5048625;28;20044;-71
2022/11/06 06:07:14;;;;;;;13.98;6.60;;;;;;;8.28;100.00;101121.47;5031868;28;20037;-70
2022/11/06 06:09:40;;;;;;;11.90;6.20;;;;;;;8.28;100.00;101121.47;5033104;28;20033;-71
2022/11/06 06:12:05;;;;;;;11.93;6.05;;;;;;;8.27;100.00;101113.59;5032840;28;20034;-70
2022/11/06 06:14:31;;;;;;;8.25;5.72;;;;;;;8.27;100.00;101118.91;5033008;28;20034;-70
2022/11/06 06:16:56;;;;;;;13.65;6.20;;;;;;;8.25;100.00;101113.72;5033012;28;20386;-70
2022/11/06 06:19:21;;;;;;;12.25;6.82;;;;;;;8.25;100.00;101113.72;5033138;28;20485;-70
2022/11/06 06:21:48;;;;;;;8.15;6.00;;;;;;;8.24;100.00;101109.41;5033183;28;20468;-70
2022/11/06 06:24:13;;;;;;;9.80;6.55;;;;;;;8.25;100.00;101115.53;5034657;28;20037;-70
2022/11/06 06:26:38;;;;;;;15.25;6.90;;;;;;;8.25;100.00;101110.22;5036560;28;20044;-70
2022/11/06 06:29:04;;;;;;;15.88;7.13;;;;;;;8.24;100.00;101119.13;5035805;28;20038;-70
2022/11/06 06:31:29;;;;;;;15.68;7.05;;;;;;;8.23;100.00;101115.66;5037200;28;20029;-71
2022/11/06 06:33:55;;;;;;;17.88;7.00;;;;;;;8.22;100.00;101106.00;5037272;28;20047;-72
2022/11/06 06:36:20;;;;;;;11.57;6.43;;;;;;;8.22;100.00;101099.88;5037116;28;20037;-70
2022/11/06 06:38:45;;;;;;;13.68;6.45;;;;;;;8.22;100.00;101103.34;5036748;28;20029;-71
2022/11/06 06:41:11;;;;;;;14.70;7.10;;;;;;;8.21;100.00;101093.72;5036874;28;20124;-70
2022/11/06 06:43:36;;;;;;;11.02;6.22;;;;;;;8.22;100.00;101095.41;5036343;28;20053;-71
2022/11/06 06:46:05;;;;;;;11.60;6.70;;;;;;;8.22;100.00;101089.25;5035903;28;20065;-72
2022/11/06 06:48:30;;;;;;;14.80;6.68;;;;;;;8.20;100.00;101093.84;5036870;28;20029;-70
2022/11/06 06:50:57;;;;;;;10.98;5.75;;;;;;;8.19;100.00;101085.03;5036553;28;20385;-73
2022/11/06 06:53:23;;;;;;;10.05;5.70;;;;;;;8.21;100.00;101090.22;5036374;28;20025;-70
2022/11/06 06:55:48;;;;;;;11.13;5.53;;;;;;;8.20;100.00;101096.50;5035644;28;20032;-70
2022/11/06 06:58:13;;;;;;;12.77;5.88;;;;;;;8.21;100.00;101084.91;5035883;28;20037;-71
2022/11/06 07:00:39;;;;;;;9.45;5.30;;;;;;;8.20;100.00;101081.44;5035136;28;20038;-70
2022/11/06 07:03:04;;;;;;;10.02;4.95;;;;;;;8.21;100.00;101087.56;5036291;28;20151;-70
2022/11/06 07:05:30;;;;;;;10.43;4.40;;;;;;;8.20;100.00;101086.72;5051895;28;20124;-70
2022/11/06 07:07:55;;;;;;;11.85;4.82;;;;;;;8.22;100.00;101081.31;5051626;28;20033;-70
2022/11/06 07:10:21;;;;;;;8.23;4.20;;;;;;;8.23;100.00;101085.66;5034637;28;20534;-71
2022/11/06 07:12:46;;;;;;;12.43;4.13;;;;;;;8.23;100.00;101081.19;5036151;28;20033;-71
2022/11/06 07:15:11;;;;;;;12.55;3.90;;;;;;;8.23;100.00;101090.97;5035860;28;20462;-71
2022/11/06 07:17:37;;;;;;;7.40;3.47;;;;;;;8.24;100.00;101089.97;5035742;28;20048;-70
2022/11/06 07:20:03;;;;;;;7.82;3.55;;;;;;;8.21;100.00;101091.09;5034470;28;20080;-71
2022/11/06 07:22:29;;;;;;;9.13;3.65;;;;;;;8.22;100.00;101094.56;5035845;28;20037;-70
2022/11/06 07:24:54;;;;;;;12.02;3.58;;;;;;;8.23;100.00;101080.38;5035409;28;20034;-70
2022/11/06 07:27:19;;;;;;;9.48;3.22;;;;;;;8.25;100.00;101083.72;5035911;28;20071;-71
2022/11/06 07:29:45;;;;;;;7.93;2.58;;;;;;;8.24;100.00;101092.63;5035846;28;20374;-71
2022/11/06 07:32:10;;;;;;;10.38;2.60;;;;;;;8.25;100.00;101087.22;5035430;28;20159;-71
2022/11/06 07:34:37;;;;;;;11.63;3.10;;;;;;;8.26;100.00;101091.56;5033732;28;20099;-70
2022/11/06 07:37:04;;;;;;;8.77;2.47;;;;;;;8.26;100.00;101085.44;5034578;28;20045;-73
2022/11/06 07:39:29;;;;;;;8.93;2.53;;;;;;;8.27;100.00;101090.59;5035522;28;20086;-70
2022/11/06 07:41:55;;;;;;;7.25;2.70;;;;;;;8.28;100.00;101083.50;5035382;28;20112;-71
2022/11/06 07:44:20;;;;;;;9.98;2.75;;;;;;;8.32;100.00;101078.81;5033693;28;20180;-71
2022/11/06 07:46:46;;;;;;;7.65;2.55;;;;;;;8.32;100.00;101082.28;5035078;28;20477;-70
2022/11/06 07:49:11;;;;;;;8.95;2.85;;;;;;;8.35;100.00;101090.00;5035290;28;20033;-70
2022/11/06 07:51:36;;;;;;;5.72;2.83;;;;;;;8.36;100.00;101104.09;5035494;28;20037;-70
2022/11/06 07:54:02;;;;;;;10.05;2.60;;;;;;;8.36;100.00;101102.31;5035550;28;20040;-70
2022/11/06 07:56:27;;;;;;;6.07;2.40;;;;;;;8.39;100.00;101106.50;5035013;28;20424;-70
2022/11/06 07:58:53;;;;;;;7.68;2.45;;;;;;;8.38;100.00;101096.91;5034351;28;20042;-70
2022/11/06 08:01:18;;;;;;;8.77;2.33;;;;;;;8.39;100.00;101101.22;5035162;28;20025;-71
2022/11/06 08:03:43;;;;;;;6.35;2.10;;;;;;;8.37;100.00;101103.97;5035658;28;20128;-71
2022/11/06 08:06:09;;;;;;;8.00;2.35;;;;;;;8.38;100.00;101089.78;5035177;28;20366;-71
2022/11/06 08:08:35;;;;;;;9.60;2.25;;;;;;;8.39;100.00;101094.13;5034117;28;20025;-70
2022/11/06 08:11:03;;;;;;;7.13;2.72;;;;;;;8.41;100.00;101094.84;5035005;28;20081;-70
2022/11/06 08:13:28;;;;;;;7.20;2.13;;;;;;;8.42;100.00;101090.38;5034848;28;20030;-70
2022/11/06 08:15:53;;;;;;;10.05;2.17;;;;;;;8.44;100.00;101080.53;5035725;28;20060;-70
2022/11/06 08:18:19;;;;;;;15.27;2.60;;;;;;;8.44;100.00;101086.69;5034086;28;20029;-70
2022/11/06 08:20:44;;;;;;;4.55;2.13;;;;;;;8.49;100.00;101074.88;5034834;28;20083;-72
2022/11/06 08:23:11;;;;;;;5.45;2.30;;;;;;;8.47;100.00;101067.88;5034503;28;20049;-71
2022/11/06 08:25:37;;;;;;;6.60;2.00;;;;;;;8.51;100.00;101062.31;5034730;28;20025;-71
2022/11/06 08:28:02;;;;;;;5.78;2.38;;;;;;;8.53;100.00;101060.41;5034639;28;20055;-72
2022/11/06 08:30:29;;;;;;;6.13;2.10;;;;;;;8.53;100.00;101049.81;5034673;28;20453;-72
2022/11/06 08:33:00;;;;;;;9.45;2.40;;;;;;;8.53;100.00;101055.13;5034586;28;20033;-71
2022/11/06 08:35:25;;;;;;;7.25;1.92;;;;;;;8.56;100.00;101058.34;5034963;28;20026;-71
2022/11/06 08:37:50;;;;;;;5.55;2.03;;;;;;;8.57;100.00;101033.53;5033449;28;20026;-71
2022/11/06 08:40:16;;;;;;;7.45;2.13;;;;;;;8.58;100.00;101039.66;5034202;28;20060;-71
2022/11/06 08:42:42;;;;;;;9.20;2.25;;;;;;;8.59;100.00;101033.41;5034255;28;20484;-71
2022/11/06 08:45:08;;;;;;;8.80;2.22;;;;;;;8.60;100.00;101030.63;5034553;28;20049;-72
2022/11/06 08:47:33;;;;;;;9.10;2.40;;;;;;;8.63;100.00;101019.78;5049717;28;20104;-71
2022/11/06 08:49:58;;;;;;;7.28;2.20;;;;;;;8.68;100.00;101031.84;5049444;28;20033;-71
2022/11/06 08:52:24;;;;;;;6.60;2.20;;;;;;;8.65;100.00;101028.44;5034213;28;20470;-71
2022/11/06 08:54:50;;;;;;;8.85;2.45;;;;;;;8.68;100.00;101032.66;5033935;28;20532;-70
2022/11/06 08:57:15;;;;;;;7.25;2.17;;;;;;;8.71;100.00;101037.72;5034330;28;20466;-71
2022/11/06 08:59:40;;;;;;;7.70;2.35;;;;;;;8.72;100.00;101023.50;5034213;28;20030;-70
2022/11/06 09:02:10;;;;;;;7.45;2.28;;;;;;;8.75;100.00;101009.16;5033884;28;20065;-70
2022/11/06 09:04:36;;;;;;;12.98;2.20;;;;;;;8.79;100.00;101011.44;5033764;28;20104;-71
2022/11/06 09:07:01;;;;;;;13.93;2.22;;;;;;;8.87;100.00;101009.97;5034003;28;20132;-72
2022/11/06 09:09:30;;;;;;;7.22;1.90;;;;;;;8.93;100.00;101014.78;5033247;28;20091;-71
2022/11/06 09:11:57;;;;;;;9.27;2.00;;;;;;;8.97;100.00;101008.25;5032788;28;20029;-70
2022/11/06 09:14:22;;;;;;;7.55;1.95;;;;;;;9.04;100.00;101001.47;5033713;28;20033;-70
2022/11/06 09:16:47;;;;;;;8.50;1.85;;;;;;;9.09;100.00;101004.63;5033824;28;20029;-70
2022/11/06 09:19:13;;;;;;;6.10;2.20;;;;;;;9.12;100.00;101004.38;5033852;28;20036;-70
2022/11/06 09:21:39;;;;;;;7.93;2.00;;;;;;;9.17;100.00;101009.28;5033693;28;20057;-69
2022/11/06 09:24:05;;;;;;;6.20;1.80;;;;;;;9.21;100.00;101005.44;5033681;28;20462;-70
2022/11/06 09:26:30;;;;;;;6.70;1.92;;;;;;;9.25;100.00;101001.53;5033555;28;20037;-70
2022/11/06 09:28:55;;;;;;;4.57;1.88;;;;;;;9.30;100.00;101004.66;5033595;28;20032;-70
2022/11/06 09:31:20;;;;;;;6.78;2.10;;;;;;;9.39;100.00;101003.06;5049159;28;20116;-72
2022/11/06 09:33:46;;;;;;;10.60;1.90;;;;;;;9.46;100.00;100985.63;5033719;28;20038;-71
2022/11/06 09:36:11;;;;;;;5.35;1.90;;;;;;;9.55;100.00;100991.16;5048970;28;20124;-73
2022/11/06 09:38:37;;;;;;;9.00;2.00;;;;;;;9.61;100.00;100978.19;5033550;28;20412;-71
2022/11/06 09:41:02;;;;;;;10.52;2.20;;;;;;;9.67;100.00;100980.34;5033197;28;20026;-72
2022/11/06 09:44:09;;;;;;;11.02;2.53;;;;;;;9.72;100.00;100979.94;5033134;28;20029;-71
2022/11/06 09:46:41;;;;;;;6.25;1.65;;;;;;;9.77;100.00;100964.44;5030550;28;20072;-72
2022/11/06 09:49:21;;;;;;;6.40;2.47;;;;;;;9.82;100.00;100970.22;5030721;28;20033;-72
2022/11/06 09:51:46;;;;;;;7.47;2.00;;;;;;;9.85;100.00;100964.66;5031749;28;20124;-72
2022/11/06 09:54:24;;;;;;;4.15;1.60;;;;;;;9.85;100.00;100962.00;5032750;28;20125;-71
2022/11/06 09:56:57;;;;;;;4.32;1.70;;;;;;;9.86;100.00;100954.84;5033386;28;20033;-72
2022/11/06 09:59:23;;;;;;;7.47;2.15;;;;;;;9.85;100.00;100946.03;5032000;28;20424;-71
2022/11/06 10:02:00;;;;;;;8.75;1.77;;;;;;;9.88;100.00;100943.13;5032839;28;20033;-71
2022/11/06 10:04:48;;;;;;;6.07;1.90;;;;;;;9.86;100.00;100950.38;5033405;28;20064;-72
2022/11/06 10:07:22;;;;;;;9.70;2.17;;;;;;;9.85;100.00;100947.84;5032974;28;20029;-71
2022/11/06 10:09:48;;;;;;;5.97;2.10;;;;;;;9.81;100.00;100955.25;5031681;28;20473;-71
2022/11/06 10:12:19;;;;;;;7.25;2.10;;;;;;;9.76;100.00;100946.81;5032883;28;20037;-70
2022/11/06 10:14:44;;;;;;;;;;;;;;;9.76;100.00;100959.25;5033396;28;20026;-71
2022/11/06 10:17:17;;;;;;;8.88;2.92;;;;;;;9.76;100.00;100943.31;5032810;28;19913;-70
2022/11/06 10:20:01;;;;;;;6.80;1.95;;;;;;;9.77;100.00;100931.72;5032356;28;20473;-70
2022/11/06 10:22:39;;;;;;;6.03;1.90;;;;;;;9.79;100.00;100930.63;5032743;28;20036;-71
2022/11/06 10:25:18;;;;;;;12.65;2.75;;;;;;;9.84;100.00;100933.72;5048300;28;20517;-70
2022/11/06 10:28:02;;;;;;;6.72;1.80;;;;;;;9.90;100.00;100945.66;5032656;28;20092;-70
2022/11/06 10:30:42;;;;;;;6.82;2.15;;;;;;;9.83;100.00;100933.84;5033177;28;20033;-69
2022/11/06 10:33:32;;;;;;;5.53;1.80;;;;;;;9.75;100.00;100928.34;5032866;28;20021;-70
2022/11/06 10:36:15;;;;;;;6.70;1.80;;;;;;;9.64;100.00;100926.59;5032772;28;20025;-70
2022/11/06 10:38:46;;;;;;;13.68;3.15;;;;;;;9.57;100.00;100922.78;5033234;28;20074;-72
2022/11/06 10:41:21;;;;;;;7.90;1.95;;;;;;;9.52;100.00;100920.53;5032784;28;20508;-72
2022/11/06 10:44:07;;;;;;;8.27;2.53;;;;;;;9.48;100.00;100924.41;5032506;28;20092;-72
2022/11/06 10:46:39;;;;;;;9.07;2.30;;;;;;;9.44;100.00;100905.25;5033556;28;20025;-70
2022/11/06 10:49:39;;;;;;;4.15;1.95;;;;;;;9.45;100.00;100903.41;5033265;28;20033;-71
2022/11/06 10:52:29;;;;;;;7.38;2.05;;;;;;;9.42;100.00;100888.59;5046006;28;20092;-69
2022/11/06 10:55:24;;;;;;;6.45;2.28;;;;;;;9.44;100.00;100889.31;5046618;28;20492;-69
2022/11/06 10:57:50;;;;;;;6.68;2.08;;;;;;;9.46;100.00;100891.84;5032717;28;20025;-70
2022/11/06 11:00:15;;;;;;;9.98;2.38;;;;;;;9.45;100.00;100893.66;5031930;28;20036;-69
2022/11/06 11:02:48;;;;;;;4.95;2.38;;;;;;;9.45;100.00;100891.00;5032535;28;20033;-69
2022/11/06 11:05:17;;;;;;;5.50;2.50;;;;;;;9.43;100.00;100879.66;5032546;28;20123;-69
2022/11/06 11:07:44;;;;;;;9.93;2.65;;;;;;;9.42;100.00;100887.75;5031166;28;20381;-71
2022/11/06 11:10:22;;;;;;;9.60;2.55;;;;;;;9.38;100.00;100879.22;5033646;28;20034;-70
2022/11/06 11:12:49;;;;;;;5.97;2.28;;;;;;;9.35;100.00;100876.81;5035771;28;20040;-69
2022/11/06 11:15:16;;;;;;;8.15;2.38;;;;;;;9.33;100.00;100874.28;5035938;28;20061;-69
2022/11/06 11:18:02;;;;;;;9.38;2.60;;;;;;;9.31;100.00;100881.53;5035635;28;20433;-69
2022/11/06 11:20:31;;;;;;;6.32;2.42;;;;;;;9.30;100.00;100882.53;5034546;28;20037;-70
2022/11/06 11:23:15;;;;;;;12.00;2.70;;;;;;;9.25;100.00;100863.47;5035932;28;20029;-68
2022/11/06 11:26:11;;;;;;;5.32;2.17;;;;;;;9.22;100.00;100869.03;5036259;28;20068;-71
2022/11/06 11:28:38;;;;;;;7.07;2.28;;;;;;;9.17;100.00;100873.91;5036057;28;20104;-72
2022/11/06 11:31:15;;;;;;;9.50;2.30;;;;;;;9.16;100.00;100866.91;5036338;28;20056;-73
2022/11/06 11:33:52;;;;;;;9.15;2.40;;;;;;;9.14;100.00;100863.53;5035292;28;20025;-73
2022/11/06 11:36:17;;;;;;;12.27;2.78;;;;;;;9.12;100.00;100853.06;5035378;28;20504;-72
2022/11/06 11:38:43;;;;;;;5.10;2.00;;;;;;;9.13;100.00;100844.09;5036021;28;20034;-72
2022/11/06 11:41:18;;;;;;;7.25;1.92;;;;;;;9.11;100.00;100837.25;5035864;28;20124;-71
2022/11/06 11:44:05;;;;;;;5.00;2.08;;;;;;;9.09;100.00;100831.22;5034916;28;20393;-69
2022/11/06 11:46:32;;;;;;;6.35;2.08;;;;;;;9.05;100.00;100829.81;5051006;28;20103;-71